Time;durP1;ratioP1;P1;durP2;ratioP2;P2;SDS_P1;SDS_P2;PMS_P1;PMS_P2;Temp;Humidity;BMP_temperature;BMP_pressure;BME280_temperature;BME280_humidity;BME280_pressure;Samples;Min_cycle;Max_cycle;Signal;HPM_P1;HPM_P2
2022/06/30 00:00:43;;;;;;;17.67;15.27;;;;;;;17.62;89.50;101076.59;6308801;22;20111;-80
2022/06/30 00:03:08;;;;;;;17.85;15.93;;;;;;;17.41;89.78;101043.56;6308983;22;20037;-79
2022/06/30 00:05:34;;;;;;;21.23;16.40;;;;;;;17.56;89.97;101066.66;6308634;22;20048;-79
2022/06/30 00:07:59;;;;;;;18.88;16.88;;;;;;;17.30;89.89;101028.00;6308957;22;20053;-80
2022/06/30 00:10:25;;;;;;;19.00;16.85;;;;;;;17.46;89.54;101062.25;6308604;22;20082;-80
2022/06/30 00:12:50;;;;;;;20.95;17.25;;;;;;;17.13;89.86;101021.69;6308517;22;20015;-80
2022/06/30 00:15:16;;;;;;;22.02;17.42;;;;;;;17.37;89.84;101064.84;6308426;22;20010;-80
2022/06/30 00:17:42;;;;;;;18.83;16.75;;;;;;;17.31;90.30;101053.19;6308937;22;20003;-80
2022/06/30 00:20:08;;;;;;;17.75;15.52;;;;;;;17.10;90.07;101023.72;6308712;22;20014;-79
2022/06/30 00:22:34;;;;;;;18.58;16.40;;;;;;;17.20;90.48;101050.66;6308417;22;19999;-81
2022/06/30 00:24:59;;;;;;;17.73;15.77;;;;;;;17.26;90.94;101054.53;6308889;22;20003;-78
2022/06/30 00:27:25;;;;;;;18.63;16.33;;;;;;;17.19;90.49;101049.84;6308750;22;20003;-81
2022/06/30 00:29:50;;;;;;;20.10;15.80;;;;;;;17.17;90.61;101051.75;6308288;22;20010;-80
2022/06/30 00:32:16;;;;;;;19.33;16.40;;;;;;;16.99;90.79;101029.88;6308554;22;19999;-80
2022/06/30 00:34:41;;;;;;;18.02;16.10;;;;;;;16.95;90.41;101025.06;6308596;22;20007;-79
2022/06/30 00:37:06;;;;;;;19.17;16.25;;;;;;;17.05;90.73;101044.19;6308130;22;20078;-80
2022/06/30 00:39:32;;;;;;;18.70;16.65;;;;;;;17.03;90.93;101041.69;6308398;22;20003;-79
2022/06/30 00:41:57;;;;;;;19.67;16.83;;;;;;;16.64;90.90;100983.34;6308733;22;20014;-82
2022/06/30 00:44:23;;;;;;;19.92;16.92;;;;;;;16.86;90.77;101014.47;6280786;22;20049;-81
2022/06/30 00:46:49;;;;;;;23.55;16.98;;;;;;;16.80;90.83;101019.38;6308350;22;20013;-81
2022/06/30 00:49:17;;;;;;;19.73;17.55;;;;;;;16.88;90.80;101043.84;6308513;22;20003;-80
2022/06/30 00:51:42;;;;;;;18.88;16.88;;;;;;;16.87;91.28;101038.75;6308663;22;20007;-86
2022/06/30 00:54:10;;;;;;;18.65;16.75;;;;;;;16.81;91.04;101044.50;6308308;22;20023;-79
2022/06/30 00:56:40;;;;;;;18.40;16.45;;;;;;;16.53;91.25;100991.25;6308294;22;20417;-81
2022/06/30 00:59:08;;;;;;;17.63;15.70;;;;;;;16.55;90.87;100994.56;6308643;22;20049;-79
2022/06/30 01:01:33;;;;;;;19.30;17.05;;;;;;;16.74;91.22;101028.56;6308052;22;20006;-81
2022/06/30 01:04:00;;;;;;;18.23;16.33;;;;;;;16.80;90.36;101038.44;6308545;22;20070;-81
2022/06/30 01:06:26;;;;;;;19.15;17.25;;;;;;;16.83;91.02;101040.00;6308199;22;19995;-86
2022/06/30 01:08:52;;;;;;;20.73;17.55;;;;;;;16.52;91.75;100997.44;6307936;22;20003;-80
2022/06/30 01:14:03;;;;;;;20.25;17.50;;;;;;;16.95;91.90;101043.31;6308328;22;20018;-80
2022/06/30 01:16:37;;;;;;;21.48;19.23;;;;;;;16.99;90.97;101049.91;6308624;22;20004;-80
2022/06/30 01:19:03;;;;;;;20.60;18.42;;;;;;;16.99;91.31;101049.91;6308520;22;20048;-80
2022/06/30 01:21:31;;;;;;;20.75;18.60;;;;;;;16.96;91.45;101045.78;6308435;22;20049;-80
2022/06/30 01:23:58;;;;;;;21.98;18.75;;;;;;;16.62;91.26;100993.91;6308009;22;20052;-80
2022/06/30 01:26:41;;;;;;;20.65;18.13;;;;;;;16.85;89.61;101030.25;6308245;22;20007;-85
2022/06/30 01:29:06;;;;;;;20.48;18.38;;;;;;;16.96;89.72;101048.41;6308076;22;20083;-80
2022/06/30 01:31:34;;;;;;;25.83;19.10;;;;;;;16.89;90.36;101047.28;6308245;22;20031;-80
2022/06/30 01:33:59;;;;;;;21.17;18.98;;;;;;;16.65;90.39;101018.88;6308133;22;20004;-80
2022/06/30 01:36:25;;;;;;;22.73;18.77;;;;;;;16.62;90.36;101017.38;6307738;22;20003;-81
2022/06/30 01:38:50;;;;;;;21.85;18.33;;;;;;;16.74;90.45;101054.63;6307391;22;20003;-80
2022/06/30 01:41:15;;;;;;;20.85;18.67;;;;;;;16.33;90.79;100992.94;6307611;22;20014;-81
2022/06/30 01:43:41;;;;;;;20.02;17.92;;;;;;;16.39;91.17;101022.88;6308139;22;19999;-80
2022/06/30 01:46:06;;;;;;;20.98;18.00;;;;;;;16.62;91.22;101053.88;6307818;22;20000;-80
2022/06/30 01:48:31;;;;;;;20.30;17.90;;;;;;;16.43;91.05;101034.72;6308303;22;20004;-80
2022/06/30 01:50:57;;;;;;;20.95;18.02;;;;;;;16.54;91.42;101063.28;6308006;22;20011;-80
2022/06/30 01:53:22;;;;;;;20.02;17.92;;;;;;;16.18;91.52;101015.91;6307055;22;20099;-80
2022/06/30 01:55:47;;;;;;;22.08;18.77;;;;;;;16.16;91.76;101011.78;6307519;22;20007;-81
2022/06/30 01:58:13;;;;;;;21.80;18.95;;;;;;;16.27;92.02;101038.59;6308042;22;20002;-80
2022/06/30 02:00:38;;;;;;;22.00;19.70;;;;;;;16.39;91.72;101054.16;6307733;22;20011;-80
2022/06/30 02:03:03;;;;;;;23.10;18.73;;;;;;;15.98;92.11;101001.09;6307885;22;20010;-81
2022/06/30 02:05:28;;;;;;;19.48;17.45;;;;;;;15.96;91.34;101005.63;6280261;22;20004;-80
2022/06/30 02:07:54;;;;;;;22.48;18.58;;;;;;;16.27;91.48;101059.44;6307134;22;20003;-80
2022/06/30 02:10:21;;;;;;;20.13;18.02;;;;;;;16.00;92.07;101030.44;6307389;22;20003;-80
2022/06/30 02:12:48;;;;;;;20.58;18.27;;;;;;;16.12;92.44;101060.69;6307166;22;20012;-81
2022/06/30 02:15:19;;;;;;;21.13;18.80;;;;;;;16.21;92.70;101072.13;6307046;22;20003;-79
2022/06/30 02:17:46;;;;;;;23.67;19.15;;;;;;;15.85;92.42;101019.53;6307307;22;20003;-80
2022/06/30 02:20:12;;;;;;;23.75;20.73;;;;;;;15.95;92.23;101041.25;6307663;22;20008;-80
2022/06/30 02:22:39;;;;;;;23.20;20.60;;;;;;;15.63;92.74;100999.63;6307078;22;20070;-80
2022/06/30 02:25:06;;;;;;;23.13;20.55;;;;;;;16.05;92.91;101054.34;6306984;22;20007;-81
2022/06/30 02:27:32;;;;;;;27.23;23.05;;;;;;;15.86;92.49;101029.00;6307609;22;20052;-83
2022/06/30 02:29:57;;;;;;;24.58;22.08;;;;;;;15.95;92.40;101045.66;6307206;22;20007;-81
2022/06/30 02:32:23;;;;;;;27.70;22.60;;;;;;;16.04;92.48;101061.34;6307337;22;20003;-81
2022/06/30 02:34:50;;;;;;;23.50;21.10;;;;;;;15.70;92.20;101015.56;6307023;22;20394;-79
2022/06/30 02:37:15;;;;;;;24.55;21.95;;;;;;;15.72;92.50;101037.06;6279778;22;20011;-80
2022/06/30 02:39:41;;;;;;;24.13;21.58;;;;;;;15.67;92.69;101036.66;6307403;22;20086;-81
2022/06/30 02:42:07;;;;;;;30.15;21.90;;;;;;;15.82;93.03;101071.84;6307274;22;20453;-80
2022/06/30 02:44:32;;;;;;;25.02;22.38;;;;;;;15.85;93.15;101062.97;6307607;22;20007;-79
2022/06/30 02:46:57;;;;;;;26.88;22.10;;;;;;;15.78;93.62;101070.44;6307163;22;19999;-80
2022/06/30 02:49:23;;;;;;;24.15;21.58;;;;;;;15.78;93.48;101073.88;6278854;22;20336;-80
2022/06/30 02:51:49;;;;;;;28.15;23.40;;;;;;;15.76;93.73;101065.38;6307392;22;20003;-80
2022/06/30 02:54:15;;;;;;;29.85;23.88;;;;;;;15.52;93.75;101030.03;6306731;22;20018;-80
2022/06/30 02:56:41;;;;;;;27.67;23.60;;;;;;;15.72;93.91;101063.94;6307291;22;19999;-80
2022/06/30 02:59:08;;;;;;;28.90;25.65;;;;;;;15.57;94.20;101033.91;6307036;22;20329;-81
2022/06/30 03:01:33;;;;;;;27.70;24.10;;;;;;;15.73;94.19;101065.63;6307073;22;20011;-80
2022/06/30 03:04:01;;;;;;;28.67;25.58;;;;;;;15.53;94.16;101036.88;6307337;22;20405;-79
2022/06/30 03:06:28;;;;;;;29.13;25.92;;;;;;;15.67;94.44;101068.72;6306941;22;19999;-80
2022/06/30 03:08:55;;;;;;;29.27;26.08;;;;;;;15.65;94.74;101067.19;6306420;22;20008;-79
2022/06/30 03:11:21;;;;;;;31.27;26.35;;;;;;;15.40;94.22;101021.44;6306613;22;20019;-80
2022/06/30 03:13:46;;;;;;;30.17;26.88;;;;;;;15.37;94.48;101030.31;6306998;22;20011;-80
2022/06/30 03:16:12;;;;;;;29.13;26.10;;;;;;;15.56;94.53;101060.91;6253299;22;20046;-81
2022/06/30 03:18:38;;;;;;;28.55;25.52;;;;;;;15.29;94.34;101018.88;6306673;22;19999;-80
2022/06/30 03:21:04;;;;;;;30.55;27.17;;;;;;;15.58;94.61;101065.97;6307359;22;20003;-79
2022/06/30 03:23:29;;;;;;;29.52;26.38;;;;;;;15.57;94.72;101059.13;6306913;22;20329;-81
2022/06/30 03:25:54;;;;;;;30.73;27.42;;;;;;;15.51;94.95;101047.41;6306587;22;20011;-80
2022/06/30 03:28:19;;;;;;;33.13;28.30;;;;;;;15.54;94.63;101059.38;6306696;22;20000;-79
2022/06/30 03:30:47;;;;;;;32.97;28.35;;;;;;;15.43;94.92;101036.78;6306900;22;19999;-81
2022/06/30 03:33:15;;;;;;;30.58;27.30;;;;;;;15.48;94.82;101053.72;6306989;22;19999;-80
2022/06/30 03:35:41;;;;;;;32.45;27.58;;;;;;;15.51;95.03;101052.63;6306846;22;20003;-80
2022/06/30 03:38:07;;;;;;;29.25;25.98;;;;;;;15.50;94.41;101056.19;6307031;22;20424;-80
2022/06/30 03:40:32;;;;;;;30.65;27.00;;;;;;;15.49;94.89;101044.13;6306637;22;20034;-79
2022/06/30 03:42:58;;;;;;;29.70;26.50;;;;;;;15.45;94.80;101053.97;6307116;22;20003;-80
2022/06/30 03:45:24;;;;;;;29.35;26.17;;;;;;;15.27;94.79;101018.16;6306802;22;20000;-79
2022/06/30 03:47:49;;;;;;;30.08;26.10;;;;;;;15.44;94.81;101048.88;6307156;22;20082;-80
2022/06/30 03:50:15;;;;;;;30.17;26.85;;;;;;;15.43;94.46;101050.63;6307064;22;20439;-80
2022/06/30 03:52:40;;;;;;;31.77;28.33;;;;;;;15.42;94.57;101048.97;6307156;22;20595;-80
2022/06/30 03:55:06;;;;;;;32.17;28.13;;;;;;;15.13;94.50;100985.44;6306848;22;20030;-80
2022/06/30 03:57:31;;;;;;;33.20;29.60;;;;;;;15.28;94.43;101014.63;6307158;22;20032;-80
2022/06/30 03:59:57;;;;;;;35.30;29.38;;;;;;;15.19;94.53;100992.75;6279155;22;20045;-80
2022/06/30 04:02:22;;;;;;;34.58;28.45;;;;;;;15.50;94.85;101043.16;6306702;22;20003;-80
2022/06/30 04:04:47;;;;;;;29.98;26.88;;;;;;;15.11;94.19;100972.53;6306947;22;20007;-80
2022/06/30 04:07:13;;;;;;;31.75;28.17;;;;;;;15.13;94.60;100970.66;6306961;22;19999;-80
2022/06/30 04:09:38;;;;;;;31.73;28.40;;;;;;;15.55;94.56;101020.22;6306568;22;20382;-80
2022/06/30 04:12:04;;;;;;;35.17;31.05;;;;;;;15.32;94.21;100971.78;6306325;22;20019;-80
2022/06/30 04:14:29;;;;;;;32.45;29.10;;;;;;;15.54;93.91;101018.56;6306694;22;20000;-80
2022/06/30 04:16:55;;;;;;;38.80;31.42;;;;;;;15.71;93.94;101032.81;6306588;22;20003;-81
2022/06/30 04:19:20;;;;;;;33.42;29.90;;;;;;;15.44;94.00;100976.00;6306493;22;20072;-80
2022/06/30 04:21:45;;;;;;;32.40;29.10;;;;;;;15.88;93.84;101036.66;6306755;22;20082;-80
2022/06/30 04:24:11;;;;;;;33.33;29.77;;;;;;;15.77;93.14;100983.69;6306248;22;20019;-80
2022/06/30 04:26:36;;;;;;;33.15;29.77;;;;;;;16.28;92.37;101026.38;6306614;22;20066;-80
2022/06/30 04:29:02;;;;;;;32.78;29.20;;;;;;;16.86;89.32;100995.38;6306740;22;20052;-81
2022/06/30 04:34:11;;;;;;;30.52;26.65;;;;;;;19.45;78.28;101030.75;6306526;22;20386;-80
2022/06/30 04:36:36;;;;;;;27.73;24.77;;;;;;;20.07;74.04;100976.59;6306451;22;20078;-80
2022/06/30 04:39:02;;;;;;;28.25;23.05;;;;;;;21.28;70.26;101040.31;6306836;22;20004;-81
2022/06/30 04:41:27;;;;;;;26.52;23.50;;;;;;;21.47;66.94;100990.09;6307741;22;20019;-81
2022/06/30 04:43:58;;;;;;;24.80;22.25;;;;;;;22.25;65.16;101016.69;6308026;22;20003;-80
2022/06/30 04:46:24;;;;;;;25.07;22.57;;;;;;;22.47;63.64;101046.72;6308615;22;20030;-80
2022/06/30 04:48:50;;;;;;;24.17;21.58;;;;;;;21.63;65.07;101016.38;6308249;22;20295;-80
2022/06/30 04:51:16;;;;;;;25.33;22.73;;;;;;;20.94;67.50;101035.91;6308297;22;19999;-80
2022/06/30 04:53:42;;;;;;;25.65;22.95;;;;;;;20.06;70.33;101051.00;6308263;22;20053;-81
2022/06/30 04:56:08;;;;;;;23.63;21.20;;;;;;;19.39;72.28;100997.34;6308205;22;20002;-80
2022/06/30 04:58:34;;;;;;;23.98;21.52;;;;;;;19.47;74.38;101065.50;6281295;22;19999;-81
2022/06/30 05:01:01;;;;;;;25.13;22.52;;;;;;;19.29;74.15;101044.53;6308022;22;20011;-81
2022/06/30 05:03:27;;;;;;;25.55;23.05;;;;;;;19.76;73.07;101011.13;6308393;22;20443;-81
2022/06/30 05:05:53;;;;;;;22.98;20.58;;;;;;;20.15;70.56;100955.66;6280312;22;20035;-80
2022/06/30 05:08:19;;;;;;;23.38;21.02;;;;;;;21.24;66.44;100991.66;6308711;22;20006;-80
2022/06/30 05:10:44;;;;;;;23.13;20.73;;;;;;;22.42;64.29;101067.47;6308045;22;20007;-81
2022/06/30 05:13:10;;;;;;;21.70;19.60;;;;;;;23.15;61.98;101080.38;6307853;22;20041;-80
2022/06/30 05:15:35;;;;;;;22.50;20.20;;;;;;;23.33;60.27;101050.31;6308390;22;19999;-80
2022/06/30 05:18:01;;;;;;;21.15;19.15;;;;;;;24.10;58.74;101069.53;6308375;22;20008;-82
2022/06/30 05:20:26;;;;;;;16.15;14.57;;;;;;;24.65;56.82;101086.00;6308260;22;20030;-79
2022/06/30 05:22:52;;;;;;;19.00;17.17;;;;;;;24.93;55.55;101081.69;6308276;22;20014;-80
2022/06/30 05:28:02;;;;;;;17.50;15.68;;;;;;;25.55;52.72;101043.34;6308006;22;20073;-81
2022/06/30 05:30:27;;;;;;;17.38;15.30;;;;;;;25.96;52.60;101070.84;6307921;22;20007;-80
2022/06/30 05:32:53;;;;;;;16.45;14.80;;;;;;;26.24;51.59;101072.63;6308420;22;19999;-81
2022/06/30 05:35:19;;;;;;;18.40;16.50;;;;;;;26.77;50.27;101073.81;6308227;22;19999;-80
2022/06/30 05:37:44;;;;;;;15.82;13.55;;;;;;;27.26;48.47;101074.63;6308140;22;20007;-81
2022/06/30 05:40:10;;;;;;;20.35;18.20;;;;;;;27.26;48.66;101059.53;6307867;22;20060;-80
2022/06/30 05:42:35;;;;;;;17.70;16.00;;;;;;;27.57;47.89;101072.25;6308011;22;20082;-80
2022/06/30 05:45:01;;;;;;;16.45;14.77;;;;;;;27.69;46.82;101017.56;6307691;22;20003;-80
2022/06/30 05:47:26;;;;;;;17.20;15.43;;;;;;;28.25;46.20;101069.41;6279866;22;20011;-80
2022/06/30 05:49:51;;;;;;;19.20;15.68;;;;;;;28.34;45.60;101078.00;6307967;22;20052;-80
2022/06/30 05:52:17;;;;;;;18.63;16.67;;;;;;;28.30;45.66;101072.28;6307295;22;20069;-80
2022/06/30 05:54:42;;;;;;;18.77;16.77;;;;;;;28.24;46.10;101068.59;6307873;22;20071;-80
2022/06/30 05:57:07;;;;;;;18.50;16.45;;;;;;;28.43;45.27;101066.94;6307758;22;20290;-81
2022/06/30 05:59:34;;;;;;;17.63;15.90;;;;;;;28.38;44.86;101077.38;6307716;22;20447;-81
2022/06/30 06:02:00;;;;;;;18.45;16.55;;;;;;;28.15;45.16;101085.75;6307822;22;20003;-81
2022/06/30 06:04:25;;;;;;;18.70;16.55;;;;;;;28.09;45.17;101080.44;6307631;22;20006;-82
2022/06/30 06:06:51;;;;;;;19.17;16.33;;;;;;;28.07;45.23;101030.22;6307711;22;20004;-83
2022/06/30 06:09:16;;;;;;;17.58;15.77;;;;;;;28.72;44.48;101081.59;6278608;22;20035;-77
2022/06/30 06:11:42;;;;;;;18.63;16.73;;;;;;;28.60;43.70;101074.44;6307534;22;20015;-80
2022/06/30 06:14:08;;;;;;;17.73;15.30;;;;;;;28.92;43.99;101081.53;6280576;22;20009;-81
2022/06/30 06:16:33;;;;;;;16.58;14.82;;;;;;;29.28;42.77;101080.94;6307873;22;20003;-79
2022/06/30 06:18:59;;;;;;;22.83;18.20;;;;;;;29.17;42.59;101070.97;6307549;22;20459;-77
2022/06/30 06:21:26;;;;;;;18.90;14.38;;;;;;;29.60;42.20;101068.50;6307297;22;20022;-76
2022/06/30 06:23:52;;;;;;;18.33;15.48;;;;;;;30.16;41.44;101077.44;6307111;22;20006;-81
2022/06/30 06:26:17;;;;;;;17.52;14.57;;;;;;;30.07;41.06;101076.91;6307013;22;19999;-79
2022/06/30 06:31:26;;;;;;;16.63;13.20;;;;;;;29.96;39.98;101051.78;6307018;22;20014;-81
2022/06/30 06:33:52;;;;;;;20.13;13.98;;;;;;;29.76;40.03;101079.63;6279081;22;20007;-83
2022/06/30 06:36:17;;;;;;;15.23;12.32;;;;;;;29.73;40.05;101094.19;6307059;22;20072;-81
2022/06/30 06:38:42;;;;;;;15.88;11.60;;;;;;;29.86;39.72;101071.97;6307211;22;20015;-90
2022/06/30 06:41:08;;;;;;;14.93;11.65;;;;;;;30.09;39.45;101084.69;6307536;22;20374;-84
2022/06/30 06:43:34;;;;;;;15.43;12.35;;;;;;;30.03;39.47;101073.03;6279239;22;20068;-84
2022/06/30 06:45:59;;;;;;;15.85;11.20;;;;;;;30.11;39.35;101095.97;6306793;22;20437;-85
2022/06/30 06:48:25;;;;;;;17.23;11.52;;;;;;;30.24;39.46;101093.16;6307322;22;20015;-83
2022/06/30 06:50:50;;;;;;;15.07;10.60;;;;;;;30.36;39.10;101104.72;6307091;22;20007;-84
2022/06/30 06:53:15;;;;;;;14.88;11.25;;;;;;;30.34;39.15;101096.13;6279367;22;20015;-83
2022/06/30 06:55:50;;;;;;;14.65;10.65;;;;;;;30.50;39.27;101106.22;6306716;22;20076;-86
2022/06/30 06:58:24;;;;;;;12.48;9.23;;;;;;;29.97;38.50;100954.88;6307268;22;20010;-87
2022/06/30 07:01:24;;;;;;;16.98;10.40;;;;;;;30.99;38.62;101099.13;6307090;22;20047;-85
2022/06/30 07:03:49;;;;;;;13.35;9.52;;;;;;;29.86;38.74;100982.25;6307214;22;19999;-87
2022/06/30 07:06:14;;;;;;;13.80;9.55;;;;;;;30.73;38.60;101108.25;6307267;22;20313;-88
2022/06/30 07:09:00;;;;;;;12.48;8.25;;;;;;;31.01;38.31;101093.56;6307108;22;20089;-87
2022/06/30 07:11:25;;;;;;;15.38;8.95;;;;;;;30.69;38.81;101116.94;6306151;22;20026;-82
2022/06/30 07:13:50;;;;;;;13.40;8.55;;;;;;;29.49;39.36;100972.56;6307059;22;20003;-85
2022/06/30 07:16:16;;;;;;;11.85;8.20;;;;;;;30.40;39.13;101121.91;6307133;22;20004;-83
2022/06/30 07:18:41;;;;;;;13.90;7.82;;;;;;;30.52;39.45;101128.13;6306957;22;20056;-84
2022/06/30 07:21:06;;;;;;;15.23;8.20;;;;;;;30.47;38.81;101127.16;6306959;22;20004;-84
2022/06/30 07:23:32;;;;;;;12.25;7.47;;;;;;;30.25;39.83;101140.06;6306830;22;20003;-84
2022/06/30 07:25:58;;;;;;;17.88;7.30;;;;;;;30.15;39.29;101140.56;6306947;22;20004;-85
2022/06/30 07:28:23;;;;;;;12.25;7.93;;;;;;;29.94;39.58;101114.28;6307003;22;19999;-86
2022/06/30 07:30:57;;;;;;;11.50;6.80;;;;;;;29.92;39.94;101085.22;6306800;22;19999;-85
2022/06/30 07:33:22;;;;;;;13.48;7.65;;;;;;;30.51;38.67;101149.69;6306819;22;20003;-88
2022/06/30 07:35:53;;;;;;;16.25;6.65;;;;;;;30.92;38.81;101150.91;6306796;22;20025;-85
2022/06/30 07:38:18;;;;;;;;;;;;;;;31.87;37.66;101157.28;6307190;22;19999;-84
2022/06/30 07:40:44;;;;;;;14.85;6.95;;;;;;;30.81;38.24;101139.94;6306710;22;19918;-86
2022/06/30 07:43:12;;;;;;;13.52;6.25;;;;;;;29.84;39.17;101108.63;6279515;22;20003;-87
2022/06/30 07:45:37;;;;;;;13.23;6.30;;;;;;;29.09;41.29;101165.09;6306295;22;20435;-86
2022/06/30 07:48:02;;;;;;;10.77;6.20;;;;;;;27.85;43.88;101165.00;6306475;22;20000;-85
2022/06/30 07:50:31;;;;;;;10.30;5.65;;;;;;;26.74;47.37;101151.03;6306968;22;20011;-84
2022/06/30 07:52:57;;;;;;;11.70;6.40;;;;;;;25.99;47.80;101162.25;6306385;22;19999;-83
2022/06/30 07:55:22;;;;;;;12.38;6.95;;;;;;;25.12;49.59;101110.22;6306319;22;20007;-85
2022/06/30 07:57:48;;;;;;;11.93;6.40;;;;;;;25.04;50.07;101165.00;6306413;22;20314;-83
2022/06/30 08:00:15;;;;;;;10.73;5.53;;;;;;;24.89;52.60;101181.66;6253948;22;20003;-83
2022/06/30 08:02:44;;;;;;;13.85;6.35;;;;;;;24.26;51.83;101111.59;6306557;22;20011;-85
2022/06/30 08:05:15;;;;;;;9.23;5.13;;;;;;;24.56;52.79;101170.56;6279870;22;20007;-85
2022/06/30 08:07:41;;;;;;;10.95;6.15;;;;;;;24.19;53.11;101175.84;6306774;22;20057;-84
2022/06/30 08:10:07;;;;;;;11.13;5.57;;;;;;;23.28;52.34;101036.84;6306276;22;20011;-85
2022/06/30 08:13:17;;;;;;;10.60;4.88;;;;;;;23.04;54.05;100999.13;6305719;22;20095;-86
2022/06/30 08:15:48;;;;;;;10.10;5.22;;;;;;;23.44;53.48;101089.44;6183487;23;20008;-85
2022/06/30 08:18:28;;;;;;;9.40;4.28;;;;;;;23.04;53.99;101011.47;6183865;23;20379;-85
2022/06/30 08:20:53;;;;;;;9.10;4.50;;;;;;;23.08;54.15;101008.31;6183892;23;20016;-87
2022/06/30 08:23:31;;;;;;;10.68;6.10;;;;;;;22.90;53.44;100982.22;6183856;23;20005;-85
2022/06/30 08:25:56;;;;;;;8.95;4.60;;;;;;;23.32;54.09;101044.22;6183552;23;20028;-86
2022/06/30 08:28:22;;;;;;;9.95;4.95;;;;;;;23.05;55.62;100973.59;6183820;23;20459;-85
2022/06/30 08:31:05;;;;;;;12.68;5.50;;;;;;;23.85;54.00;101102.38;6182228;23;20021;-83
2022/06/30 08:33:50;;;;;;;10.60;5.30;;;;;;;23.16;53.80;101016.16;6184310;23;20013;-83
2022/06/30 08:36:22;;;;;;;7.55;4.10;;;;;;;23.39;56.08;101049.59;6183517;23;20047;-85
2022/06/30 08:38:53;;;;;;;9.35;5.03;;;;;;;23.24;55.71;101006.56;6183421;23;20016;-84
2022/06/30 08:44:30;;;;;;;12.88;5.60;;;;;;;23.05;54.84;100952.53;6183629;23;20029;-82
2022/06/30 08:46:57;;;;;;;10.68;5.15;;;;;;;24.13;52.99;101165.97;6183045;23;20308;-86
2022/06/30 08:49:23;;;;;;;11.43;5.45;;;;;;;23.94;53.94;101165.47;6183468;23;20012;-82
2022/06/30 08:51:52;;;;;;;11.05;4.88;;;;;;;23.97;53.65;101162.47;6214560;22;20317;-81
2022/06/30 08:54:21;;;;;;;9.88;5.32;;;;;;;23.91;53.70;101160.53;6306541;22;20056;-79
2022/06/30 08:56:54;;;;;;;12.38;5.43;;;;;;;23.97;54.58;101161.63;6308372;22;20074;-84
2022/06/30 08:59:24;;;;;;;10.38;5.10;;;;;;;24.09;54.04;101170.81;6309022;22;20003;-84
2022/06/30 09:01:49;;;;;;;11.13;5.57;;;;;;;23.82;55.79;101110.66;6307179;22;20136;-81
2022/06/30 09:04:23;;;;;;;11.90;4.72;;;;;;;24.38;55.02;101156.06;6307875;22;20042;-84
2022/06/30 09:06:52;;;;;;;12.60;4.57;;;;;;;23.61;54.29;101040.94;6308018;22;20018;-82
2022/06/30 09:09:18;;;;;;;8.93;4.57;;;;;;;24.52;54.80;101171.13;6279851;22;20010;-84
2022/06/30 09:11:58;;;;;;;9.60;4.45;;;;;;;24.20;53.51;101117.59;6307541;22;20006;-83
2022/06/30 09:14:42;;;;;;;9.73;4.35;;;;;;;24.48;52.93;101167.19;6308003;22;20050;-83
2022/06/30 09:17:19;;;;;;;10.35;4.15;;;;;;;24.13;52.48;101110.56;6307640;22;20015;-83
2022/06/30 09:19:58;;;;;;;10.23;4.43;;;;;;;24.44;53.92;101142.97;6307434;22;20443;-82
2022/06/30 09:22:37;;;;;;;10.02;4.63;;;;;;;24.65;53.50;101176.59;6307836;22;20285;-89
2022/06/30 09:25:06;;;;;;;8.55;4.15;;;;;;;24.73;52.02;101171.25;6307820;22;20007;-82
2022/06/30 09:27:37;;;;;;;9.02;4.30;;;;;;;24.71;52.80;101173.25;6307564;22;20026;-81
2022/06/30 09:30:13;;;;;;;9.07;4.78;;;;;;;24.52;51.91;101152.66;6307237;22;19999;-81
2022/06/30 09:33:05;;;;;;;10.80;3.90;;;;;;;24.75;52.07;101178.97;6307459;22;20003;-81
2022/06/30 09:35:31;;;;;;;9.77;4.03;;;;;;;24.76;54.64;101175.34;6306278;22;20003;-79
2022/06/30 09:38:03;;;;;;;11.32;4.72;;;;;;;24.70;52.76;101179.53;6308259;22;20059;-77
2022/06/30 09:41:00;;;;;;;12.75;5.05;;;;;;;24.36;53.10;101143.03;6307528;22;20306;-81
2022/06/30 09:43:36;;;;;;;6.63;3.63;;;;;;;24.71;52.49;101188.28;6307661;22;20030;-81
2022/06/30 09:46:02;;;;;;;9.70;4.00;;;;;;;24.48;51.17;101149.56;6307685;22;20007;-81
2022/06/30 09:48:31;;;;;;;10.93;4.68;;;;;;;24.65;52.93;101191.63;6307445;22;20369;-81
2022/06/30 09:50:58;;;;;;;11.27;4.90;;;;;;;24.77;52.63;101188.34;6307412;22;20037;-80
2022/06/30 09:53:23;;;;;;;6.78;3.83;;;;;;;25.00;52.36;101179.56;6307312;22;20033;-77
2022/06/30 09:55:49;;;;;;;8.70;3.80;;;;;;;25.09;51.04;101186.41;6307658;22;20048;-81
2022/06/30 09:58:34;;;;;;;7.88;3.70;;;;;;;25.03;50.85;101187.13;6307386;22;20010;-82
2022/06/30 10:00:59;;;;;;;8.98;3.92;;;;;;;24.89;51.62;101171.06;6278932;22;20409;-81
2022/06/30 10:03:25;;;;;;;11.05;3.92;;;;;;;25.04;52.70;101162.34;6307196;22;20003;-76
2022/06/30 10:06:08;;;;;;;9.02;4.00;;;;;;;24.86;50.97;101146.81;6306744;22;20043;-83
2022/06/30 10:08:34;;;;;;;10.63;4.13;;;;;;;24.82;49.96;101164.06;6306913;22;20007;-80
2022/06/30 10:11:00;;;;;;;10.05;3.42;;;;;;;25.05;51.83;101199.16;6307013;22;20007;-79
2022/06/30 10:13:26;;;;;;;9.07;3.88;;;;;;;25.01;51.74;101157.41;6306904;22;20017;-81
2022/06/30 10:16:03;;;;;;;8.93;4.00;;;;;;;24.35;50.71;101004.16;6280235;22;20364;-80
2022/06/30 10:19:03;;;;;;;8.98;4.30;;;;;;;25.71;49.74;101188.63;6275467;22;19999;-82
2022/06/30 10:21:28;;;;;;;12.27;4.28;;;;;;;25.46;49.06;101125.44;6275798;22;20003;-78
2022/06/30 10:23:58;;;;;;;19.63;4.63;;;;;;;25.16;50.31;101028.72;6276627;22;20058;-79
2022/06/30 10:29:57;;;;;;;10.85;4.22;;;;;;;25.49;48.24;101002.63;6276385;22;20019;-82
2022/06/30 10:36:30;;;;;;;11.07;4.93;;;;;;;26.53;47.55;101169.63;6276004;22;20084;-81
2022/06/30 10:43:11;;;;;;;8.05;4.43;;;;;;;24.77;49.96;101019.31;6123872;23;20018;-81
2022/06/30 10:52:49;;;;;;;10.63;4.97;;;;;;;25.34;50.52;101179.00;6123428;23;20025;-82
2022/06/30 10:55:14;;;;;;;11.07;4.00;;;;;;;24.44;51.53;100991.69;6123176;23;20478;-82
2022/06/30 10:58:00;;;;;;;8.02;4.10;;;;;;;25.63;50.15;101160.41;6123461;23;20030;-86
2022/06/30 11:01:09;;;;;;;9.25;4.50;;;;;;;25.60;50.70;101167.91;6123025;23;20010;-85
2022/06/30 11:03:35;;;;;;;8.60;4.00;;;;;;;25.40;49.55;101162.41;6123079;23;20010;-83
2022/06/30 11:06:13;;;;;;;6.43;3.30;;;;;;;25.36;49.85;101169.06;6123144;23;20006;-80
2022/06/30 11:08:39;;;;;;;8.82;3.40;;;;;;;25.28;50.11;101167.34;6123730;23;20016;-80
2022/06/30 11:14:26;;;;;;;10.50;3.83;;;;;;;24.02;50.56;100991.28;6280425;22;20351;-84
2022/06/30 11:17:13;;;;;;;8.18;3.35;;;;;;;24.29;50.89;101062.94;6306819;22;20082;-83
2022/06/30 11:19:41;;;;;;;8.30;3.40;;;;;;;23.78;49.87;100998.59;6211989;23;20013;-85
2022/06/30 11:22:08;;;;;;;11.10;4.05;;;;;;;24.55;50.52;101105.56;6212270;23;20012;-83
2022/06/30 11:24:40;;;;;;;9.88;3.58;;;;;;;25.39;50.12;101172.16;6212470;23;20038;-81
2022/06/30 11:27:23;;;;;;;10.90;4.15;;;;;;;25.69;48.53;101169.44;6212365;23;20370;-80
2022/06/30 11:29:56;;;;;;;11.35;4.00;;;;;;;25.79;49.01;101127.66;6212242;23;20362;-80
2022/06/30 11:32:22;;;;;;;8.98;3.33;;;;;;;26.14;49.11;101154.22;6212009;23;20009;-80
2022/06/30 11:34:48;;;;;;;8.75;4.28;;;;;;;26.20;48.01;101151.63;6212150;23;20450;-81
2022/06/30 11:37:22;;;;;;;7.85;3.63;;;;;;;26.21;48.52;101163.03;6212286;23;20004;-83
2022/06/30 11:39:55;;;;;;;9.18;3.90;;;;;;;26.29;47.11;101158.44;6212084;23;20354;-84
2022/06/30 11:42:20;;;;;;;10.05;3.55;;;;;;;26.07;47.81;101127.72;6212082;23;20154;-81
2022/06/30 11:44:45;;;;;;;10.73;3.70;;;;;;;26.35;47.29;101145.41;6212157;23;20044;-82
2022/06/30 11:47:16;;;;;;;8.60;3.20;;;;;;;26.33;48.64;101153.56;6212339;23;20426;-82
2022/06/30 11:50:06;;;;;;;10.60;3.95;;;;;;;26.54;47.77;101139.47;6250800;22;20389;-82
2022/06/30 11:52:37;;;;;;;11.25;3.85;;;;;;;26.81;46.36;101146.59;6281618;22;20010;-81
2022/06/30 11:55:25;;;;;;;10.25;4.22;;;;;;;26.87;45.89;101142.34;6308740;22;20328;-80